This is the latest recevied weather packets stored in our database for station/object KF0PEC-15. If no packets are shown the sender has not sent any weather packets the latest 10 day(s).
| Time | Temp. | Humidity | Pressure | Rain* | Wind** | Luminosity | Snow |
|---|---|---|---|---|---|---|---|
| 1777099389 | 6.67° C | 54% | 1013 hPa | 0 mm | - | 0 W/m² | - |
| 1777098875 | 6.67° C | 56% | 1013 hPa | 0 mm | - | 0 W/m² | - |
| 1777098309 | 6.67° C | 56% | 1012.7 hPa | 0 mm | - | 0 W/m² | - |
| 1777097725 | 6.67° C | 56% | 1012.5 hPa | 0 mm | - | 0 W/m² | - |
| 1777097129 | 7.22° C | 56% | 1011.8 hPa | 0 mm | - | 0 W/m² | - |
| 1777096545 | 7.22° C | 55% | 1011.8 hPa | 0 mm | - | 0 W/m² | - |
| 1777096065 | 7.22° C | 54% | 1011.9 hPa | 0 mm | - | 0 W/m² | - |
| 1777095505 | 7.78° C | 51% | 1011.7 hPa | 0 mm | - | 0 W/m² | - |
| 1777094960 | 8.89° C | 48% | 1011 hPa | 0 mm | - | 0 W/m² | - |
| 1777094360 | 9.44° C | 42% | 1009.8 hPa | 0 mm | - | 0 W/m² | - |
| 1777093785 | 10° C | 39% | 1009.2 hPa | 0 mm | - | 0 W/m² | - |
| 1777093189 | 10.56° C | 37% | 1008.8 hPa | 0 mm | - | 0 W/m² | - |
| 1777092649 | 11.11° C | 35% | 1008.4 hPa | 0 mm | - | 0 W/m² | - |
| 1777092145 | 15° C | 21% | 1004.6 hPa | 0 mm | - | 0 W/m² | - |
| 1777091555 | 15° C | 18% | 1003.3 hPa | 0 mm | - | 0 W/m² | - |
| 1777091005 | 15° C | 18% | 1003.5 hPa | 0 mm | - | 0 W/m² | - |
| 1777090420 | 13.89° C | 18% | 1004.4 hPa | 0 mm | - | 0 W/m² | - |
| 1777089925 | 13.33° C | 18% | 1004.8 hPa | 0 mm | - | 0 W/m² | - |
| 1777089339 | 12.22° C | 19% | 1005.3 hPa | 0 mm | - | 0 W/m² | - |
| 1777088825 | 11.67° C | 20% | 1006 hPa | 0 mm | - | 0 W/m² | - |
| 1777088325 | 11.67° C | 20% | 1005.9 hPa | 0 mm | - | 0 W/m² | - |
| 1777087835 | 11.67° C | 20% | 1005.5 hPa | 0 mm | - | 0 W/m² | - |
| 1777087319 | 11.67° C | 20% | 1005.5 hPa | 0 mm | - | 0 W/m² | - |
| 1777086740 | 11.67° C | 20% | 1005.5 hPa | 0 mm | - | 0 W/m² | - |
| 1777086249 | 11.67° C | 20% | 1005.4 hPa | 0 mm | - | 0 W/m² | - |
* Rain latest hour (hover to see other rain measurements)
** Current wind speed in m/s (hover to see current wind gust speed)